sensor_id;sensor_type;location;lat;lon;timestamp;P1;durP1;ratioP1;P2;durP2;ratioP2
30307;SDS011;17114;52.314;8.910;2023-05-10T00:00:56;10.82;;;9.32;;
30307;SDS011;17114;52.314;8.910;2023-05-10T00:03:23;12.60;;;10.88;;
30307;SDS011;17114;52.314;8.910;2023-05-10T00:05:51;12.55;;;10.95;;
30307;SDS011;17114;52.314;8.910;2023-05-10T00:08:18;12.23;;;9.60;;
30307;SDS011;17114;52.314;8.910;2023-05-10T00:10:45;12.27;;;10.88;;
30307;SDS011;17114;52.314;8.910;2023-05-10T00:13:12;13.55;;;11.38;;
30307;SDS011;17114;52.314;8.910;2023-05-10T00:15:39;15.32;;;12.60;;
30307;SDS011;17114;52.314;8.910;2023-05-10T00:18:06;13.73;;;11.32;;
30307;SDS011;17114;52.314;8.910;2023-05-10T00:20:33;13.85;;;11.50;;
30307;SDS011;17114;52.314;8.910;2023-05-10T00:23:00;13.68;;;10.73;;
30307;SDS011;17114;52.314;8.910;2023-05-10T00:25:27;10.93;;;9.70;;
30307;SDS011;17114;52.314;8.910;2023-05-10T00:27:54;12.68;;;9.77;;
30307;SDS011;17114;52.314;8.910;2023-05-10T00:30:23;13.80;;;10.73;;
30307;SDS011;17114;52.314;8.910;2023-05-10T00:32:50;13.13;;;11.60;;
30307;SDS011;17114;52.314;8.910;2023-05-10T00:35:18;12.95;;;11.25;;
30307;SDS011;17114;52.314;8.910;2023-05-10T00:37:45;14.02;;;11.43;;
30307;SDS011;17114;52.314;8.910;2023-05-10T00:40:12;13.25;;;11.05;;
30307;SDS011;17114;52.314;8.910;2023-05-10T00:42:40;13.50;;;11.55;;
30307;SDS011;17114;52.314;8.910;2023-05-10T00:45:07;15.50;;;12.77;;
30307;SDS011;17114;52.314;8.910;2023-05-10T00:47:34;15.45;;;10.40;;
30307;SDS011;17114;52.314;8.910;2023-05-10T00:50:02;12.38;;;9.52;;
30307;SDS011;17114;52.314;8.910;2023-05-10T00:52:30;14.00;;;11.13;;
30307;SDS011;17114;52.314;8.910;2023-05-10T00:54:58;14.30;;;12.63;;
30307;SDS011;17114;52.314;8.910;2023-05-10T00:57:26;15.43;;;12.82;;
30307;SDS011;17114;52.314;8.910;2023-05-10T00:59:53;13.38;;;10.95;;
30307;SDS011;17114;52.314;8.910;2023-05-10T01:02:20;14.48;;;11.93;;
30307;SDS011;17114;52.314;8.910;2023-05-10T01:04:49;14.77;;;10.48;;
30307;SDS011;17114;52.314;8.910;2023-05-10T01:07:16;14.68;;;11.23;;
30307;SDS011;17114;52.314;8.910;2023-05-10T01:09:43;12.82;;;11.07;;
30307;SDS011;17114;52.314;8.910;2023-05-10T01:12:11;15.20;;;11.65;;
30307;SDS011;17114;52.314;8.910;2023-05-10T01:14:38;14.43;;;12.30;;
30307;SDS011;17114;52.314;8.910;2023-05-10T01:17:06;16.27;;;12.57;;
30307;SDS011;17114;52.314;8.910;2023-05-10T01:19:35;12.65;;;10.85;;
30307;SDS011;17114;52.314;8.910;2023-05-10T01:25:22;13.60;;;11.02;;
30307;SDS011;17114;52.314;8.910;2023-05-10T01:33:52;15.85;;;12.70;;
30307;SDS011;17114;52.314;8.910;2023-05-10T01:36:30;14.50;;;12.35;;
30307;SDS011;17114;52.314;8.910;2023-05-10T01:39:24;16.10;;;12.13;;
30307;SDS011;17114;52.314;8.910;2023-05-10T01:42:03;17.38;;;13.40;;
30307;SDS011;17114;52.314;8.910;2023-05-10T01:44:58;20.23;;;13.80;;
30307;SDS011;17114;52.314;8.910;2023-05-10T01:48:05;15.60;;;12.70;;
30307;SDS011;17114;52.314;8.910;2023-05-10T01:50:36;14.85;;;12.63;;
30307;SDS011;17114;52.314;8.910;2023-05-10T01:53:06;15.30;;;12.77;;
30307;SDS011;17114;52.314;8.910;2023-05-10T01:55:39;13.65;;;11.65;;
30307;SDS011;17114;52.314;8.910;2023-05-10T01:58:18;13.45;;;11.15;;
30307;SDS011;17114;52.314;8.910;2023-05-10T02:00:49;13.13;;;11.10;;
30307;SDS011;17114;52.314;8.910;2023-05-10T02:03:18;14.82;;;11.88;;
30307;SDS011;17114;52.314;8.910;2023-05-10T02:05:49;11.23;;;8.95;;
30307;SDS011;17114;52.314;8.910;2023-05-10T02:08:18;12.30;;;11.00;;
30307;SDS011;17114;52.314;8.910;2023-05-10T02:10:47;14.18;;;11.85;;
30307;SDS011;17114;52.314;8.910;2023-05-10T02:13:18;14.73;;;11.52;;
30307;SDS011;17114;52.314;8.910;2023-05-10T02:15:46;14.85;;;11.30;;
30307;SDS011;17114;52.314;8.910;2023-05-10T02:18:15;15.60;;;12.05;;
30307;SDS011;17114;52.314;8.910;2023-05-10T02:20:45;13.48;;;11.43;;
30307;SDS011;17114;52.314;8.910;2023-05-10T02:23:13;15.27;;;12.98;;
30307;SDS011;17114;52.314;8.910;2023-05-10T02:25:43;16.27;;;12.95;;
30307;SDS011;17114;52.314;8.910;2023-05-10T02:28:11;12.18;;;10.70;;
30307;SDS011;17114;52.314;8.910;2023-05-10T02:30:39;16.60;;;13.02;;
30307;SDS011;17114;52.314;8.910;2023-05-10T02:33:07;15.82;;;13.23;;
30307;SDS011;17114;52.314;8.910;2023-05-10T02:35:35;16.05;;;12.50;;
30307;SDS011;17114;52.314;8.910;2023-05-10T02:38:03;18.80;;;14.88;;
30307;SDS011;17114;52.314;8.910;2023-05-10T02:40:32;17.25;;;14.23;;
30307;SDS011;17114;52.314;8.910;2023-05-10T02:43:02;18.55;;;15.35;;
30307;SDS011;17114;52.314;8.910;2023-05-10T02:45:32;18.83;;;14.82;;
30307;SDS011;17114;52.314;8.910;2023-05-10T02:48:02;22.70;;;16.08;;
30307;SDS011;17114;52.314;8.910;2023-05-10T02:50:30;21.38;;;16.35;;
30307;SDS011;17114;52.314;8.910;2023-05-10T02:53:00;24.38;;;18.67;;
30307;SDS011;17114;52.314;8.910;2023-05-10T02:55:35;24.45;;;18.73;;
30307;SDS011;17114;52.314;8.910;2023-05-10T02:58:07;25.80;;;18.95;;
30307;SDS011;17114;52.314;8.910;2023-05-10T03:00:34;24.27;;;18.52;;
30307;SDS011;17114;52.314;8.910;2023-05-10T03:03:02;24.13;;;18.08;;
30307;SDS011;17114;52.314;8.910;2023-05-10T03:05:29;25.13;;;18.33;;
30307;SDS011;17114;52.314;8.910;2023-05-10T03:07:56;26.90;;;19.45;;
30307;SDS011;17114;52.314;8.910;2023-05-10T03:10:27;25.15;;;18.38;;
30307;SDS011;17114;52.314;8.910;2023-05-10T03:21:12;24.50;;;18.73;;
30307;SDS011;17114;52.314;8.910;2023-05-10T03:23:46;26.65;;;20.00;;
30307;SDS011;17114;52.314;8.910;2023-05-10T03:26:33;25.83;;;17.48;;
30307;SDS011;17114;52.314;8.910;2023-05-10T03:29:01;21.48;;;16.30;;
30307;SDS011;17114;52.314;8.910;2023-05-10T03:31:28;14.55;;;10.93;;
30307;SDS011;17114;52.314;8.910;2023-05-10T03:33:55;9.65;;;7.43;;
30307;SDS011;17114;52.314;8.910;2023-05-10T03:36:22;10.45;;;7.05;;
30307;SDS011;17114;52.314;8.910;2023-05-10T03:38:49;9.02;;;6.57;;
30307;SDS011;17114;52.314;8.910;2023-05-10T03:41:16;10.23;;;7.03;;
30307;SDS011;17114;52.314;8.910;2023-05-10T03:43:47;10.10;;;6.22;;
30307;SDS011;17114;52.314;8.910;2023-05-10T03:46:14;11.13;;;6.80;;
30307;SDS011;17114;52.314;8.910;2023-05-10T03:48:41;8.57;;;6.00;;
30307;SDS011;17114;52.314;8.910;2023-05-10T03:51:08;9.23;;;6.43;;
30307;SDS011;17114;52.314;8.910;2023-05-10T03:53:35;8.50;;;5.72;;
30307;SDS011;17114;52.314;8.910;2023-05-10T03:56:02;10.02;;;5.57;;
30307;SDS011;17114;52.314;8.910;2023-05-10T03:58:29;7.55;;;5.80;;
30307;SDS011;17114;52.314;8.910;2023-05-10T04:00:56;16.05;;;6.15;;
30307;SDS011;17114;52.314;8.910;2023-05-10T04:03:23;8.88;;;6.28;;
30307;SDS011;17114;52.314;8.910;2023-05-10T04:06:01;8.48;;;6.22;;
30307;SDS011;17114;52.314;8.910;2023-05-10T04:08:28;10.68;;;6.57;;
30307;SDS011;17114;52.314;8.910;2023-05-10T04:11:08;9.05;;;6.82;;
30307;SDS011;17114;52.314;8.910;2023-05-10T04:13:36;10.55;;;6.90;;
30307;SDS011;17114;52.314;8.910;2023-05-10T04:16:03;9.38;;;6.55;;
30307;SDS011;17114;52.314;8.910;2023-05-10T04:18:31;9.40;;;6.95;;
30307;SDS011;17114;52.314;8.910;2023-05-10T04:21:04;8.32;;;7.13;;
30307;SDS011;17114;52.314;8.910;2023-05-10T04:23:37;9.65;;;6.95;;
30307;SDS011;17114;52.314;8.910;2023-05-10T04:26:07;8.60;;;6.95;;
30307;SDS011;17114;52.314;8.910;2023-05-10T04:32:18;9.27;;;6.95;;
30307;SDS011;17114;52.314;8.910;2023-05-10T04:34:46;8.32;;;6.85;;
30307;SDS011;17114;52.314;8.910;2023-05-10T04:37:14;8.82;;;7.05;;
30307;SDS011;17114;52.314;8.910;2023-05-10T04:39:40;9.23;;;6.97;;
30307;SDS011;17114;52.314;8.910;2023-05-10T04:42:07;8.10;;;6.63;;
30307;SDS011;17114;52.314;8.910;2023-05-10T04:44:34;8.63;;;6.97;;
30307;SDS011;17114;52.314;8.910;2023-05-10T04:47:02;8.27;;;6.88;;
30307;SDS011;17114;52.314;8.910;2023-05-10T04:49:32;9.82;;;6.97;;
30307;SDS011;17114;52.314;8.910;2023-05-10T04:51:59;11.60;;;7.22;;
30307;SDS011;17114;52.314;8.910;2023-05-10T04:54:26;9.70;;;7.35;;
30307;SDS011;17114;52.314;8.910;2023-05-10T04:56:53;8.90;;;7.18;;
30307;SDS011;17114;52.314;8.910;2023-05-10T04:59:20;9.93;;;7.85;;
30307;SDS011;17114;52.314;8.910;2023-05-10T05:01:47;10.07;;;7.57;;
30307;SDS011;17114;52.314;8.910;2023-05-10T05:04:21;9.52;;;7.88;;
30307;SDS011;17114;52.314;8.910;2023-05-10T05:07:05;9.02;;;7.45;;
30307;SDS011;17114;52.314;8.910;2023-05-10T05:09:32;10.52;;;7.95;;
30307;SDS011;17114;52.314;8.910;2023-05-10T05:12:07;10.40;;;7.90;;
30307;SDS011;17114;52.314;8.910;2023-05-10T05:14:33;10.02;;;8.05;;
30307;SDS011;17114;52.314;8.910;2023-05-10T05:17:04;10.05;;;7.65;;
30307;SDS011;17114;52.314;8.910;2023-05-10T05:19:31;10.07;;;8.02;;
30307;SDS011;17114;52.314;8.910;2023-05-10T05:21:58;11.25;;;8.50;;
30307;SDS011;17114;52.314;8.910;2023-05-10T05:24:25;6.13;;;4.03;;
30307;SDS011;17114;52.314;8.910;2023-05-10T05:26:52;6.18;;;2.92;;
30307;SDS011;17114;52.314;8.910;2023-05-10T05:29:19;4.30;;;2.65;;
30307;SDS011;17114;52.314;8.910;2023-05-10T05:31:46;3.47;;;2.30;;
30307;SDS011;17114;52.314;8.910;2023-05-10T05:34:20;3.10;;;2.20;;
30307;SDS011;17114;52.314;8.910;2023-05-10T05:36:57;4.88;;;2.63;;
30307;SDS011;17114;52.314;8.910;2023-05-10T05:39:27;2.88;;;2.40;;
30307;SDS011;17114;52.314;8.910;2023-05-10T05:41:54;4.25;;;2.72;;
30307;SDS011;17114;52.314;8.910;2023-05-10T05:44:22;4.82;;;3.15;;
30307;SDS011;17114;52.314;8.910;2023-05-10T05:46:52;3.95;;;3.55;;
30307;SDS011;17114;52.314;8.910;2023-05-10T05:49:20;3.97;;;3.30;;
30307;SDS011;17114;52.314;8.910;2023-05-10T05:51:48;4.78;;;3.80;;
30307;SDS011;17114;52.314;8.910;2023-05-10T05:54:16;5.18;;;4.13;;
30307;SDS011;17114;52.314;8.910;2023-05-10T05:56:44;5.68;;;4.47;;
30307;SDS011;17114;52.314;8.910;2023-05-10T05:59:13;7.28;;;4.88;;
30307;SDS011;17114;52.314;8.910;2023-05-10T06:01:40;7.28;;;4.50;;
30307;SDS011;17114;52.314;8.910;2023-05-10T06:04:12;6.60;;;4.50;;
30307;SDS011;17114;52.314;8.910;2023-05-10T06:06:46;5.47;;;4.40;;
30307;SDS011;17114;52.314;8.910;2023-05-10T06:09:13;6.63;;;4.32;;
30307;SDS011;17114;52.314;8.910;2023-05-10T06:11:40;7.13;;;4.93;;
30307;SDS011;17114;52.314;8.910;2023-05-10T06:14:07;5.85;;;4.72;;
30307;SDS011;17114;52.314;8.910;2023-05-10T06:16:34;6.28;;;5.25;;
30307;SDS011;17114;52.314;8.910;2023-05-10T06:19:01;7.07;;;5.40;;
30307;SDS011;17114;52.314;8.910;2023-05-10T06:21:29;7.65;;;5.95;;
30307;SDS011;17114;52.314;8.910;2023-05-10T06:23:56;7.13;;;5.65;;
30307;SDS011;17114;52.314;8.910;2023-05-10T06:26:23;7.25;;;5.93;;
30307;SDS011;17114;52.314;8.910;2023-05-10T06:28:50;7.93;;;6.35;;
30307;SDS011;17114;52.314;8.910;2023-05-10T06:31:17;6.78;;;5.65;;
30307;SDS011;17114;52.314;8.910;2023-05-10T06:33:44;8.10;;;5.72;;
30307;SDS011;17114;52.314;8.910;2023-05-10T06:36:11;8.35;;;6.05;;
30307;SDS011;17114;52.314;8.910;2023-05-10T06:38:38;9.73;;;6.65;;
30307;SDS011;17114;52.314;8.910;2023-05-10T06:41:05;9.88;;;6.47;;
30307;SDS011;17114;52.314;8.910;2023-05-10T06:43:31;11.20;;;7.03;;
30307;SDS011;17114;52.314;8.910;2023-05-10T06:45:58;11.70;;;7.45;;
30307;SDS011;17114;52.314;8.910;2023-05-10T06:48:25;8.98;;;7.00;;
30307;SDS011;17114;52.314;8.910;2023-05-10T06:50:52;10.93;;;6.75;;
30307;SDS011;17114;52.314;8.910;2023-05-10T06:53:19;10.77;;;7.70;;
30307;SDS011;17114;52.314;8.910;2023-05-10T06:55:46;9.40;;;7.97;;
30307;SDS011;17114;52.314;8.910;2023-05-10T06:58:12;14.05;;;9.68;;
30307;SDS011;17114;52.314;8.910;2023-05-10T07:00:40;9.73;;;8.13;;
30307;SDS011;17114;52.314;8.910;2023-05-10T07:03:10;9.75;;;7.13;;
30307;SDS011;17114;52.314;8.910;2023-05-10T07:05:39;8.30;;;7.18;;
30307;SDS011;17114;52.314;8.910;2023-05-10T07:08:07;8.05;;;6.43;;
30307;SDS011;17114;52.314;8.910;2023-05-10T07:10:34;9.13;;;7.30;;
30307;SDS011;17114;52.314;8.910;2023-05-10T07:13:02;7.90;;;6.22;;
30307;SDS011;17114;52.314;8.910;2023-05-10T07:15:29;8.10;;;6.10;;
30307;SDS011;17114;52.314;8.910;2023-05-10T07:17:56;6.35;;;5.18;;
30307;SDS011;17114;52.314;8.910;2023-05-10T07:20:23;8.57;;;5.05;;
30307;SDS011;17114;52.314;8.910;2023-05-10T07:22:50;5.90;;;4.53;;
30307;SDS011;17114;52.314;8.910;2023-05-10T07:25:17;5.65;;;4.68;;
30307;SDS011;17114;52.314;8.910;2023-05-10T07:27:45;5.65;;;4.00;;
30307;SDS011;17114;52.314;8.910;2023-05-10T07:30:14;4.80;;;4.22;;
30307;SDS011;17114;52.314;8.910;2023-05-10T07:32:41;6.82;;;3.40;;
30307;SDS011;17114;52.314;8.910;2023-05-10T07:35:08;6.57;;;4.30;;
30307;SDS011;17114;52.314;8.910;2023-05-10T07:37:35;4.82;;;3.97;;
30307;SDS011;17114;52.314;8.910;2023-05-10T07:40:02;4.85;;;3.80;;
30307;SDS011;17114;52.314;8.910;2023-05-10T07:42:29;6.15;;;3.80;;
30307;SDS011;17114;52.314;8.910;2023-05-10T07:44:56;4.40;;;3.47;;
30307;SDS011;17114;52.314;8.910;2023-05-10T07:47:24;6.85;;;3.83;;
30307;SDS011;17114;52.314;8.910;2023-05-10T07:49:57;6.18;;;4.45;;
30307;SDS011;17114;52.314;8.910;2023-05-10T07:52:30;5.55;;;4.20;;
30307;SDS011;17114;52.314;8.910;2023-05-10T07:54:57;4.60;;;3.95;;
30307;SDS011;17114;52.314;8.910;2023-05-10T07:57:24;5.47;;;4.28;;
30307;SDS011;17114;52.314;8.910;2023-05-10T07:59:54;7.00;;;4.45;;
30307;SDS011;17114;52.314;8.910;2023-05-10T08:02:20;9.88;;;4.88;;
30307;SDS011;17114;52.314;8.910;2023-05-10T08:04:54;7.10;;;4.90;;
30307;SDS011;17114;52.314;8.910;2023-05-10T08:07:22;6.38;;;4.90;;
30307;SDS011;17114;52.314;8.910;2023-05-10T08:09:51;6.05;;;5.00;;
30307;SDS011;17114;52.314;8.910;2023-05-10T08:12:20;8.48;;;5.50;;
30307;SDS011;17114;52.314;8.910;2023-05-10T08:14:48;7.35;;;4.60;;
30307;SDS011;17114;52.314;8.910;2023-05-10T08:17:15;6.95;;;4.25;;
30307;SDS011;17114;52.314;8.910;2023-05-10T08:19:48;6.68;;;4.50;;
30307;SDS011;17114;52.314;8.910;2023-05-10T08:22:15;5.60;;;4.40;;
30307;SDS011;17114;52.314;8.910;2023-05-10T08:24:49;6.57;;;4.57;;
30307;SDS011;17114;52.314;8.910;2023-05-10T08:27:16;9.00;;;4.35;;
30307;SDS011;17114;52.314;8.910;2023-05-10T08:29:46;5.70;;;4.13;;
30307;SDS011;17114;52.314;8.910;2023-05-10T08:32:15;5.90;;;4.15;;
30307;SDS011;17114;52.314;8.910;2023-05-10T08:34:43;6.93;;;4.13;;
30307;SDS011;17114;52.314;8.910;2023-05-10T08:37:10;6.53;;;4.15;;
30307;SDS011;17114;52.314;8.910;2023-05-10T08:39:39;7.20;;;4.20;;
30307;SDS011;17114;52.314;8.910;2023-05-10T08:42:07;7.10;;;4.38;;
30307;SDS011;17114;52.314;8.910;2023-05-10T08:44:35;5.55;;;4.63;;
30307;SDS011;17114;52.314;8.910;2023-05-10T08:47:06;7.18;;;4.60;;
30307;SDS011;17114;52.314;8.910;2023-05-10T08:49:34;9.23;;;4.95;;
30307;SDS011;17114;52.314;8.910;2023-05-10T08:52:02;9.43;;;4.93;;
30307;SDS011;17114;52.314;8.910;2023-05-10T08:54:33;9.57;;;4.90;;
30307;SDS011;17114;52.314;8.910;2023-05-10T08:57:01;7.82;;;5.07;;
30307;SDS011;17114;52.314;8.910;2023-05-10T08:59:39;7.32;;;4.63;;
30307;SDS011;17114;52.314;8.910;2023-05-10T09:02:11;10.27;;;4.70;;
30307;SDS011;17114;52.314;8.910;2023-05-10T09:04:52;7.10;;;4.57;;
30307;SDS011;17114;52.314;8.910;2023-05-10T09:07:19;8.75;;;4.70;;
30307;SDS011;17114;52.314;8.910;2023-05-10T09:09:47;8.68;;;5.38;;
30307;SDS011;17114;52.314;8.910;2023-05-10T09:12:15;9.00;;;6.20;;
30307;SDS011;17114;52.314;8.910;2023-05-10T09:14:46;10.30;;;6.57;;
30307;SDS011;17114;52.314;8.910;2023-05-10T09:17:38;12.50;;;7.88;;
30307;SDS011;17114;52.314;8.910;2023-05-10T09:20:07;10.93;;;7.75;;
30307;SDS011;17114;52.314;8.910;2023-05-10T09:23:18;13.80;;;8.13;;
30307;SDS011;17114;52.314;8.910;2023-05-10T09:26:23;16.13;;;7.75;;
30307;SDS011;17114;52.314;8.910;2023-05-10T09:28:57;13.93;;;9.63;;
30307;SDS011;17114;52.314;8.910;2023-05-10T09:35:42;15.23;;;9.82;;
30307;SDS011;17114;52.314;8.910;2023-05-10T09:38:13;15.35;;;9.85;;
30307;SDS011;17114;52.314;8.910;2023-05-10T09:43:44;15.45;;;9.70;;
30307;SDS011;17114;52.314;8.910;2023-05-10T09:46:17;16.60;;;9.63;;
30307;SDS011;17114;52.314;8.910;2023-05-10T09:48:45;14.82;;;8.95;;
30307;SDS011;17114;52.314;8.910;2023-05-10T09:51:26;14.48;;;8.88;;
30307;SDS011;17114;52.314;8.910;2023-05-10T09:54:17;12.63;;;8.82;;
30307;SDS011;17114;52.314;8.910;2023-05-10T09:56:56;13.18;;;8.98;;
30307;SDS011;17114;52.314;8.910;2023-05-10T09:59:27;10.13;;;6.50;;
30307;SDS011;17114;52.314;8.910;2023-05-10T10:01:59;13.98;;;9.18;;
30307;SDS011;17114;52.314;8.910;2023-05-10T10:04:29;15.25;;;8.88;;
30307;SDS011;17114;52.314;8.910;2023-05-10T10:07:01;14.85;;;9.60;;
30307;SDS011;17114;52.314;8.910;2023-05-10T10:09:50;13.20;;;8.73;;
30307;SDS011;17114;52.314;8.910;2023-05-10T10:12:17;13.48;;;8.85;;
30307;SDS011;17114;52.314;8.910;2023-05-10T10:15:17;13.82;;;8.88;;
30307;SDS011;17114;52.314;8.910;2023-05-10T10:17:45;14.07;;;9.00;;
30307;SDS011;17114;52.314;8.910;2023-05-10T10:20:21;14.10;;;9.60;;
30307;SDS011;17114;52.314;8.910;2023-05-10T10:28:37;15.13;;;9.18;;
30307;SDS011;17114;52.314;8.910;2023-05-10T10:37:06;13.52;;;9.02;;
30307;SDS011;17114;52.314;8.910;2023-05-10T10:39:43;11.52;;;7.88;;
30307;SDS011;17114;52.314;8.910;2023-05-10T10:42:44;14.15;;;8.15;;
30307;SDS011;17114;52.314;8.910;2023-05-10T10:46:04;11.60;;;7.97;;
30307;SDS011;17114;52.314;8.910;2023-05-10T10:48:51;16.08;;;9.05;;
30307;SDS011;17114;52.314;8.910;2023-05-10T10:56:15;13.02;;;8.43;;
30307;SDS011;17114;52.314;8.910;2023-05-10T10:58:56;13.02;;;8.65;;
30307;SDS011;17114;52.314;8.910;2023-05-10T11:02:00;12.65;;;8.80;;
30307;SDS011;17114;52.314;8.910;2023-05-10T11:04:48;12.45;;;8.18;;
30307;SDS011;17114;52.314;8.910;2023-05-10T11:07:36;14.32;;;7.80;;
30307;SDS011;17114;52.314;8.910;2023-05-10T11:13:30;13.60;;;8.00;;
30307;SDS011;17114;52.314;8.910;2023-05-10T11:16:40;11.00;;;7.32;;
30307;SDS011;17114;52.314;8.910;2023-05-10T11:19:31;11.13;;;6.97;;
30307;SDS011;17114;52.314;8.910;2023-05-10T11:22:49;12.32;;;7.20;;
30307;SDS011;17114;52.314;8.910;2023-05-10T11:26:07;12.02;;;7.35;;
30307;SDS011;17114;52.314;8.910;2023-05-10T11:28:44;13.18;;;8.27;;
30307;SDS011;17114;52.314;8.910;2023-05-10T11:31:13;13.60;;;8.63;;
30307;SDS011;17114;52.314;8.910;2023-05-10T11:33:54;13.90;;;7.72;;
30307;SDS011;17114;52.314;8.910;2023-05-10T11:36:52;12.85;;;8.50;;
30307;SDS011;17114;52.314;8.910;2023-05-10T11:39:44;10.35;;;7.45;;
30307;SDS011;17114;52.314;8.910;2023-05-10T11:42:17;9.90;;;6.35;;
30307;SDS011;17114;52.314;8.910;2023-05-10T11:54:30;12.07;;;6.00;;
30307;SDS011;17114;52.314;8.910;2023-05-10T11:57:26;8.38;;;5.05;;
30307;SDS011;17114;52.314;8.910;2023-05-10T12:00:15;10.57;;;5.10;;
30307;SDS011;17114;52.314;8.910;2023-05-10T12:02:45;11.32;;;4.68;;
30307;SDS011;17114;52.314;8.910;2023-05-10T12:05:23;9.60;;;4.97;;
30307;SDS011;17114;52.314;8.910;2023-05-10T12:11:08;8.02;;;5.07;;
30307;SDS011;17114;52.314;8.910;2023-05-10T12:14:08;8.02;;;5.15;;
30307;SDS011;17114;52.314;8.910;2023-05-10T12:17:00;8.48;;;5.78;;
30307;SDS011;17114;52.314;8.910;2023-05-10T12:19:50;10.25;;;6.10;;
30307;SDS011;17114;52.314;8.910;2023-05-10T12:22:23;10.57;;;6.40;;
30307;SDS011;17114;52.314;8.910;2023-05-10T12:25:18;9.82;;;6.43;;
30307;SDS011;17114;52.314;8.910;2023-05-10T12:27:52;10.38;;;6.57;;
30307;SDS011;17114;52.314;8.910;2023-05-10T12:30:25;11.75;;;7.55;;
30307;SDS011;17114;52.314;8.910;2023-05-10T12:33:20;12.57;;;7.22;;
30307;SDS011;17114;52.314;8.910;2023-05-10T12:36:05;14.35;;;7.40;;
30307;SDS011;17114;52.314;8.910;2023-05-10T12:38:39;13.15;;;7.50;;
30307;SDS011;17114;52.314;8.910;2023-05-10T12:41:33;9.20;;;7.07;;
30307;SDS011;17114;52.314;8.910;2023-05-10T12:44:05;26.73;;;7.80;;
30307;SDS011;17114;52.314;8.910;2023-05-10T12:46:53;11.05;;;7.63;;
30307;SDS011;17114;52.314;8.910;2023-05-10T12:49:29;11.68;;;7.72;;
30307;SDS011;17114;52.314;8.910;2023-05-10T12:52:22;11.40;;;7.43;;
30307;SDS011;17114;52.314;8.910;2023-05-10T12:55:28;9.57;;;6.32;;
30307;SDS011;17114;52.314;8.910;2023-05-10T13:01:56;15.68;;;9.15;;
30307;SDS011;17114;52.314;8.910;2023-05-10T13:07:29;14.30;;;9.07;;
30307;SDS011;17114;52.314;8.910;2023-05-10T13:10:45;14.80;;;9.48;;
30307;SDS011;17114;52.314;8.910;2023-05-10T13:13:39;14.90;;;8.85;;
30307;SDS011;17114;52.314;8.910;2023-05-10T13:16:22;15.40;;;9.23;;
30307;SDS011;17114;52.314;8.910;2023-05-10T13:19:20;12.02;;;8.52;;
30307;SDS011;17114;52.314;8.910;2023-05-10T13:21:47;13.50;;;9.20;;
30307;SDS011;17114;52.314;8.910;2023-05-10T13:24:36;13.27;;;8.80;;
30307;SDS011;17114;52.314;8.910;2023-05-10T13:27:31;13.35;;;8.70;;
30307;SDS011;17114;52.314;8.910;2023-05-10T13:30:15;15.15;;;10.68;;
30307;SDS011;17114;52.314;8.910;2023-05-10T13:32:59;22.30;;;14.15;;
30307;SDS011;17114;52.314;8.910;2023-05-10T13:35:29;22.85;;;13.45;;
30307;SDS011;17114;52.314;8.910;2023-05-10T13:38:08;22.42;;;14.38;;
30307;SDS011;17114;52.314;8.910;2023-05-10T13:40:52;19.50;;;12.30;;
30307;SDS011;17114;52.314;8.910;2023-05-10T13:43:31;21.35;;;13.52;;
30307;SDS011;17114;52.314;8.910;2023-05-10T13:46:19;22.55;;;13.93;;
30307;SDS011;17114;52.314;8.910;2023-05-10T13:48:46;24.20;;;13.88;;
30307;SDS011;17114;52.314;8.910;2023-05-10T13:51:28;23.77;;;15.05;;
30307;SDS011;17114;52.314;8.910;2023-05-10T13:53:58;21.17;;;13.27;;
30307;SDS011;17114;52.314;8.910;2023-05-10T13:56:32;24.45;;;14.45;;
30307;SDS011;17114;52.314;8.910;2023-05-10T13:59:25;23.85;;;14.90;;
30307;SDS011;17114;52.314;8.910;2023-05-10T14:02:09;22.92;;;13.32;;
30307;SDS011;17114;52.314;8.910;2023-05-10T14:04:49;17.55;;;11.93;;
30307;SDS011;17114;52.314;8.910;2023-05-10T14:07:40;19.38;;;12.32;;
30307;SDS011;17114;52.314;8.910;2023-05-10T14:10:23;18.20;;;11.93;;
30307;SDS011;17114;52.314;8.910;2023-05-10T14:13:20;17.52;;;11.45;;
30307;SDS011;17114;52.314;8.910;2023-05-10T14:15:50;17.35;;;10.95;;
30307;SDS011;17114;52.314;8.910;2023-05-10T14:18:21;17.35;;;10.93;;
30307;SDS011;17114;52.314;8.910;2023-05-10T14:20:52;18.30;;;9.75;;
30307;SDS011;17114;52.314;8.910;2023-05-10T14:23:25;18.05;;;10.55;;
30307;SDS011;17114;52.314;8.910;2023-05-10T14:25:58;14.50;;;9.75;;
30307;SDS011;17114;52.314;8.910;2023-05-10T14:28:37;15.57;;;9.15;;
30307;SDS011;17114;52.314;8.910;2023-05-10T14:31:07;13.60;;;8.73;;
30307;SDS011;17114;52.314;8.910;2023-05-10T14:33:34;14.93;;;8.88;;
30307;SDS011;17114;52.314;8.910;2023-05-10T14:36:14;12.13;;;8.10;;
30307;SDS011;17114;52.314;8.910;2023-05-10T14:39:00;14.80;;;8.55;;
30307;SDS011;17114;52.314;8.910;2023-05-10T14:41:48;12.85;;;8.35;;
30307;SDS011;17114;52.314;8.910;2023-05-10T14:44:22;14.23;;;8.25;;
30307;SDS011;17114;52.314;8.910;2023-05-10T14:46:55;15.57;;;8.27;;
30307;SDS011;17114;52.314;8.910;2023-05-10T14:49:25;10.70;;;7.57;;
30307;SDS011;17114;52.314;8.910;2023-05-10T14:51:58;13.20;;;7.40;;
30307;SDS011;17114;52.314;8.910;2023-05-10T14:54:44;15.32;;;8.77;;
30307;SDS011;17114;52.314;8.910;2023-05-10T14:57:16;11.63;;;7.18;;
30307;SDS011;17114;52.314;8.910;2023-05-10T14:59:49;10.80;;;7.60;;
30307;SDS011;17114;52.314;8.910;2023-05-10T15:03:14;12.90;;;7.70;;
30307;SDS011;17114;52.314;8.910;2023-05-10T15:05:57;16.48;;;8.25;;
30307;SDS011;17114;52.314;8.910;2023-05-10T15:08:27;10.82;;;6.55;;
30307;SDS011;17114;52.314;8.910;2023-05-10T15:10:55;9.30;;;6.30;;
30307;SDS011;17114;52.314;8.910;2023-05-10T15:13:22;10.43;;;6.10;;
30307;SDS011;17114;52.314;8.910;2023-05-10T15:16:05;10.82;;;6.03;;
30307;SDS011;17114;52.314;8.910;2023-05-10T15:18:33;8.70;;;5.65;;
30307;SDS011;17114;52.314;8.910;2023-05-10T15:21:21;10.48;;;5.43;;
30307;SDS011;17114;52.314;8.910;2023-05-10T15:24:29;9.30;;;5.38;;
30307;SDS011;17114;52.314;8.910;2023-05-10T15:27:44;8.05;;;4.57;;
30307;SDS011;17114;52.314;8.910;2023-05-10T15:30:11;8.00;;;4.50;;
30307;SDS011;17114;52.314;8.910;2023-05-10T15:32:59;7.05;;;4.65;;
30307;SDS011;17114;52.314;8.910;2023-05-10T15:36:01;6.95;;;4.72;;
30307;SDS011;17114;52.314;8.910;2023-05-10T15:38:31;11.45;;;5.70;;
30307;SDS011;17114;52.314;8.910;2023-05-10T15:44:08;9.60;;;5.43;;
30307;SDS011;17114;52.314;8.910;2023-05-10T15:49:33;9.05;;;5.30;;
30307;SDS011;17114;52.314;8.910;2023-05-10T15:52:04;6.75;;;4.80;;
30307;SDS011;17114;52.314;8.910;2023-05-10T15:54:31;7.47;;;4.50;;
30307;SDS011;17114;52.314;8.910;2023-05-10T15:57:01;7.82;;;4.38;;
30307;SDS011;17114;52.314;8.910;2023-05-10T16:02:30;6.55;;;4.05;;
30307;SDS011;17114;52.314;8.910;2023-05-10T16:04:58;6.20;;;3.65;;
30307;SDS011;17114;52.314;8.910;2023-05-10T16:07:32;5.78;;;3.03;;
30307;SDS011;17114;52.314;8.910;2023-05-10T16:10:22;4.32;;;3.20;;
30307;SDS011;17114;52.314;8.910;2023-05-10T16:13:06;5.05;;;3.00;;
30307;SDS011;17114;52.314;8.910;2023-05-10T16:15:48;5.93;;;3.33;;
30307;SDS011;17114;52.314;8.910;2023-05-10T16:18:22;5.55;;;3.10;;
30307;SDS011;17114;52.314;8.910;2023-05-10T16:24:03;5.88;;;3.10;;
30307;SDS011;17114;52.314;8.910;2023-05-10T16:26:40;5.30;;;3.20;;
30307;SDS011;17114;52.314;8.910;2023-05-10T16:29:59;6.20;;;3.38;;
30307;SDS011;17114;52.314;8.910;2023-05-10T16:32:48;11.40;;;6.13;;
30307;SDS011;17114;52.314;8.910;2023-05-10T16:35:37;9.57;;;6.90;;
30307;SDS011;17114;52.314;8.910;2023-05-10T16:38:04;10.80;;;6.40;;